Naples, FL (34101)

12:02 AM EDT on September 21, 2014 (GMT -0400)
Foxfire | Change Station
CLOSE
Current Station
Personal Weather Station
Location: Naples, FL
Elevation: 40 ft
Nearby Weather Stations

Elev 40 ft 26.14 °N, 81.75 °W | Updated 8 minutes ago

Clear
Clear
74.7 °F
Feels Like 72 °F
N
0.0
Wind Variable Wind from WNW

Today
High -- | Low -- °F
--% Chance of Precip.
Yesterday
High -- | Low -- °F
Precip. -- in
7:15 AM 7:24 PM
Waning Crescent, 9% visible
Pressure 29.96 in
Visibility 10.0 miles
Clouds Clear
Heat Index 72 °F
Dew Point 74 °F
Humidity 99%
Rainfall 0.01 in
Snow Depth Not available.
UV 0 out of 12
Pollen 2.70 out of 12
Air Quality Not available.
Flu Activity Not available.
METAR KAPF 210353Z AUTO 00000KT 10SM CLR 26/23 A2996 RMK AO2 SLP144 T02560233 $

More Conditions Fewer Conditions

Pressure 29.96 in
Visibility 10.0 miles
Clouds Clear
Heat Index 72 °F
Dew Point 74 °F
Humidity 99%
Rainfall 0.01 in
Snow Depth Not available.
UV 0 out of 12
Pollen 2.70 out of 12
Air Quality Not available.
Flu Activity Not available.
METAR KAPF 210353Z AUTO 00000KT 10SM CLR 26/23 A2996 RMK AO2 SLP144 T02560233 $

More Conditions Fewer Conditions

10-Day Weather Forecast

Almanac

Astronomy

Sep. 21, 2014 Rise Set
Actual Time 7:15 AM EDT 7:24 PM EDT
Civil Twilight 6:52 AM EDT 7:47 PM EDT
Nautical Twilight 6:25 AM EDT 8:14 PM EDT
Astronomical Twilight 5:58 AM EDT 8:41 PM EDT
Moon 4:59 AM EDT 5:51 PM EDT
Length of Visible Light 12h 55m
Length of Day
12h 09m
Tomorrow will be 1m 31s shorter.
Waning Crescent, 9% of the Moon is Illuminated
Today
Waning Crescent
Sep 24
New
Oct 1
First Quarter
Oct 8
Full
Oct 15
Last Quarter

Yesterday's Extremes

State Highs State Lows

Community

WunderPhotos

Upload Photos

1,755,084 photos uploaded!

Nearby

Snow Depth

Station Depth Elevation
No new snow has been reported.

Earthquake Activity

City Distance Mag. Time & Date
No recent earthquake activity has been reported nearby.
Minimum magnitude displayed is 2.5.

Coastal Water Temperatures

Place Temperature
Naples, FL 87.1 °F

Nearby Weather Stations